Time;durP1;ratioP1;P1;durP2;ratioP2;P2;SDS_P1;SDS_P2;PMS_P1;PMS_P2;Temp;Humidity;BMP_temperature;BMP_pressure;BME280_temperature;BME280_humidity;BME280_pressure;Samples;Min_cycle;Max_cycle;Signal;HPM_P1;HPM_P2
2023/01/06 00:00:16;;;;;;;15.37;4.13;;;;;;;10.61;62.44;99139.06;6039147;23;20641;-88
2023/01/06 00:02:42;;;;;;;8.90;4.00;;;;;;;10.71;61.35;99140.28;6039499;23;20488;-87
2023/01/06 00:05:07;;;;;;;9.77;4.23;;;;;;;10.83;60.50;99139.59;6039161;23;20605;-88
2023/01/06 00:07:33;;;;;;;8.47;3.70;;;;;;;10.89;59.18;99139.28;6039823;23;20192;-87
2023/01/06 00:09:58;;;;;;;7.33;3.37;;;;;;;11.09;58.35;99139.91;6039430;23;20485;-88
2023/01/06 00:12:25;;;;;;;7.60;3.60;;;;;;;11.20;57.18;99138.47;6039461;23;20202;-86
2023/01/06 00:14:51;;;;;;;9.30;3.67;;;;;;;11.48;57.09;99133.38;6015389;23;20231;-88
2023/01/06 00:17:17;;;;;;;6.57;3.20;;;;;;;11.52;56.34;99148.88;6041159;23;20159;-88
2023/01/06 00:19:42;;;;;;;7.87;3.70;;;;;;;11.74;55.88;99148.53;6040981;23;20158;-88
2023/01/06 00:22:08;;;;;;;6.87;2.80;;;;;;;11.87;54.79;99131.13;6040946;23;20600;-88
2023/01/06 00:24:33;;;;;;;7.17;3.30;;;;;;;12.08;54.52;99140.38;6040876;23;20184;-88
2023/01/06 00:26:59;;;;;;;6.03;2.50;;;;;;;12.14;53.77;99149.69;6041181;23;20573;-87
2023/01/06 00:29:25;;;;;;;5.50;2.63;;;;;;;12.25;52.79;99153.41;6040842;23;20220;-85
2023/01/06 00:31:50;;;;;;;8.70;3.17;;;;;;;12.35;52.33;99132.66;6040791;23;20577;-86
2023/01/06 00:34:16;;;;;;;7.63;3.17;;;;;;;12.42;51.61;99139.22;6040770;23;20597;-87
2023/01/06 00:36:42;;;;;;;7.47;3.33;;;;;;;12.65;51.28;99140.50;6040696;23;20464;-89
2023/01/06 00:39:07;;;;;;;6.63;2.83;;;;;;;12.60;50.83;99148.66;6040675;23;20165;-86
2023/01/06 00:44:16;;;;;;;11.20;2.83;;;;;;;12.72;50.68;99162.84;6041404;23;20153;-88
2023/01/06 00:46:42;;;;;;;7.70;3.17;;;;;;;12.80;49.59;99156.19;6016121;23;20488;-87
2023/01/06 00:49:07;;;;;;;8.60;2.70;;;;;;;12.86;49.68;99158.44;6040621;23;20150;-89
2023/01/06 00:51:36;;;;;;;13.57;3.97;;;;;;;12.99;49.09;99168.19;6041040;23;20153;-86
2023/01/06 00:54:02;;;;;;;9.87;3.37;;;;;;;13.07;49.14;99163.34;6040588;23;20157;-86
2023/01/06 00:56:27;;;;;;;7.53;3.83;;;;;;;13.02;48.63;99168.88;6040649;23;20154;-88
2023/01/06 00:58:53;;;;;;;6.93;3.57;;;;;;;12.95;48.68;99164.91;6040867;23;20150;-87
2023/01/06 01:01:18;;;;;;;5.60;2.73;;;;;;;12.97;48.67;99156.94;6040728;23;20208;-87
2023/01/06 01:03:44;;;;;;;7.40;3.13;;;;;;;13.05;48.10;99158.13;6040772;23;20644;-87
2023/01/06 01:06:09;;;;;;;12.90;3.23;;;;;;;12.88;47.99;99169.72;6040825;23;20533;-87
2023/01/06 01:08:35;;;;;;;6.63;2.30;;;;;;;12.82;48.34;99167.44;6040809;23;20153;-87
2023/01/06 01:11:08;;;;;;;5.27;2.57;;;;;;;12.79;48.73;99182.56;6015440;23;20597;-86
2023/01/06 01:13:34;;;;;;;5.53;2.90;;;;;;;12.89;47.93;99166.13;6040791;23;20141;-86
2023/01/06 01:16:07;;;;;;;4.03;2.10;;;;;;;12.80;48.43;99155.34;6040097;23;20173;-86
2023/01/06 01:18:33;;;;;;;6.03;3.03;;;;;;;12.95;48.28;99159.63;6040278;23;20229;-86
2023/01/06 01:20:59;;;;;;;8.73;2.63;;;;;;;12.96;47.86;99163.97;6040286;23;20321;-86
2023/01/06 01:23:24;;;;;;;7.70;2.13;;;;;;;12.97;47.38;99151.69;6015379;23;20185;-87
2023/01/06 01:25:54;;;;;;;7.63;3.30;;;;;;;12.94;47.67;99160.59;6040309;23;20153;-88
2023/01/06 01:28:20;;;;;;;5.63;2.40;;;;;;;13.02;47.91;99160.13;6040141;23;20141;-87
2023/01/06 01:30:45;;;;;;;7.53;2.23;;;;;;;13.12;47.42;99156.00;6015224;23;20165;-87
2023/01/06 01:33:10;;;;;;;9.13;3.53;;;;;;;13.09;47.41;99167.56;6040228;23;20153;-86
2023/01/06 01:35:36;;;;;;;6.83;2.60;;;;;;;12.98;47.41;99169.13;6040587;23;20567;-86
2023/01/06 01:38:01;;;;;;;6.23;2.43;;;;;;;13.04;47.63;99163.50;6040567;23;20193;-88
2023/01/06 01:40:27;;;;;;;5.30;2.47;;;;;;;13.12;47.93;99175.28;6040399;23;20677;-86
2023/01/06 01:42:52;;;;;;;9.63;3.13;;;;;;;13.14;47.47;99176.03;6040758;23;20165;-86
2023/01/06 01:45:24;;;;;;;4.80;2.27;;;;;;;12.97;47.94;99167.47;6040203;23;20157;-86
2023/01/06 01:47:56;;;;;;;7.37;3.10;;;;;;;13.11;47.93;99176.22;6040383;23;20153;-86
2023/01/06 01:50:27;;;;;;;6.97;2.57;;;;;;;13.09;47.54;99174.63;6016143;23;20617;-87
2023/01/06 01:53:02;;;;;;;4.07;2.10;;;;;;;13.00;47.66;99188.31;6040398;23;20164;-86
2023/01/06 01:55:28;;;;;;;7.33;2.37;;;;;;;13.04;47.59;99179.28;6040137;23;20138;-88
2023/01/06 01:58:03;;;;;;;6.53;2.77;;;;;;;13.13;47.64;99174.31;6040102;23;20180;-87
2023/01/06 02:00:28;;;;;;;7.00;2.40;;;;;;;13.23;47.32;99174.63;6040003;23;20170;-87
2023/01/06 02:02:54;;;;;;;5.87;2.70;;;;;;;13.33;47.23;99183.63;6040653;23;20238;-86
2023/01/06 02:05:23;;;;;;;5.50;1.80;;;;;;;13.27;47.31;99181.38;6040140;23;20157;-86
2023/01/06 02:07:49;;;;;;;5.50;2.47;;;;;;;13.47;46.38;99162.50;6039975;23;20549;-87
2023/01/06 02:10:19;;;;;;;6.47;2.43;;;;;;;13.41;46.69;99182.19;6014867;23;20598;-88
2023/01/06 02:12:48;;;;;;;6.37;2.17;;;;;;;13.35;46.75;99181.72;6015069;23;20251;-87
2023/01/06 02:15:25;;;;;;;4.03;2.30;;;;;;;13.57;45.97;99171.53;6039917;23;20177;-86
2023/01/06 02:18:13;;;;;;;5.50;2.77;;;;;;;13.57;46.16;99158.38;6040224;23;20222;-87
2023/01/06 02:20:47;;;;;;;4.30;2.27;;;;;;;13.62;46.12;99166.81;6040450;23;20474;-87
2023/01/06 02:23:21;;;;;;;4.47;1.77;;;;;;;13.43;46.07;99155.75;6014938;23;20168;-87
2023/01/06 02:26:04;;;;;;;5.10;2.30;;;;;;;13.51;46.41;99158.75;6015173;23;20177;-87
2023/01/06 02:28:48;;;;;;;7.90;3.53;;;;;;;13.57;46.22;99164.47;6015867;23;20601;-87
2023/01/06 02:31:22;;;;;;;5.37;1.93;;;;;;;13.55;45.78;99166.34;6040137;23;20134;-88
2023/01/06 02:34:13;;;;;;;4.63;1.93;;;;;;;13.34;46.42;99183.50;6015817;23;20236;-88
2023/01/06 02:37:13;;;;;;;5.50;2.10;;;;;;;13.36;46.62;99176.34;6040143;23;20150;-88
2023/01/06 02:40:00;;;;;;;5.37;2.23;;;;;;;13.38;46.97;99168.38;6040226;23;20149;-87
2023/01/06 02:43:24;;;;;;;6.33;2.83;;;;;;;13.59;46.36;99156.47;6040054;23;20138;-86
2023/01/06 02:46:15;;;;;;;5.07;1.63;;;;;;;13.63;46.06;99168.50;5864204;24;20172;-88
2023/01/06 02:48:52;;;;;;;3.87;1.77;;;;;;;13.69;46.25;99162.84;6009521;23;20159;-88
2023/01/06 02:51:28;;;;;;;6.07;2.50;;;;;;;13.63;46.40;99163.22;6039620;23;20148;-87
2023/01/06 02:54:05;;;;;;;6.97;2.60;;;;;;;13.78;46.40;99156.13;6040169;23;20533;-88
2023/01/06 02:56:35;;;;;;;5.97;2.57;;;;;;;13.84;46.31;99138.13;6039932;23;20146;-89
2023/01/06 02:59:08;;;;;;;9.20;3.00;;;;;;;13.77;46.75;99136.84;6038330;23;20178;-88
2023/01/06 03:01:42;;;;;;;4.80;2.10;;;;;;;13.77;46.72;99142.09;6014491;23;20179;-86
2023/01/06 03:04:17;;;;;;;6.23;1.60;;;;;;;13.63;47.45;99138.66;6015959;23;20147;-87
2023/01/06 03:06:46;;;;;;;4.17;1.77;;;;;;;13.71;47.21;99123.22;6014580;23;20146;-87
2023/01/06 03:09:18;;;;;;;3.30;1.97;;;;;;;13.73;47.32;99113.44;6040097;23;20234;-88
2023/01/06 03:11:48;;;;;;;4.00;1.77;;;;;;;13.72;46.98;99120.50;6039778;23;20138;-87
2023/01/06 03:14:35;;;;;;;3.87;2.20;;;;;;;13.80;47.06;99120.84;6038089;23;20208;-87
2023/01/06 03:17:01;;;;;;;4.83;1.87;;;;;;;13.69;47.02;99115.41;6014516;23;20173;-87
2023/01/06 03:19:27;;;;;;;4.80;2.20;;;;;;;13.81;46.84;99109.34;6039055;23;20595;-89
2023/01/06 03:21:53;;;;;;;5.40;2.33;;;;;;;14.06;46.25;99112.03;6039662;23;20217;-86
2023/01/06 03:24:19;;;;;;;7.47;1.90;;;;;;;14.07;46.04;99105.81;6039371;23;20210;-87
2023/01/06 03:26:47;;;;;;;4.63;1.77;;;;;;;14.35;45.26;99109.25;6014473;23;20588;-90
2023/01/06 03:29:15;;;;;;;4.10;1.80;;;;;;;14.44;45.78;99119.19;6040060;23;20151;-87
2023/01/06 03:31:47;;;;;;;5.43;1.97;;;;;;;14.47;45.33;99105.75;6014586;23;20158;-87
2023/01/06 03:34:19;;;;;;;4.73;2.23;;;;;;;14.43;45.26;99106.94;6014544;23;20162;-88
2023/01/06 03:36:55;;;;;;;5.20;1.87;;;;;;;13.99;45.73;99113.38;6014444;23;20584;-88
2023/01/06 03:39:31;;;;;;;5.10;1.83;;;;;;;14.19;45.60;99133.16;6014967;23;20157;-88
2023/01/06 03:45:13;;;;;;;3.13;1.70;;;;;;;13.93;45.79;99128.78;6040041;23;20146;-90
2023/01/06 03:48:02;;;;;;;4.10;2.13;;;;;;;13.82;46.15;99132.09;6039251;23;20154;-88
2023/01/06 03:50:48;;;;;;;3.43;1.53;;;;;;;14.04;45.88;99127.13;6041764;23;20135;-88
2023/01/06 03:53:19;;;;;;;3.67;1.77;;;;;;;13.95;46.20;99132.13;6041844;23;20198;-88
2023/01/06 03:55:52;;;;;;;5.20;1.50;;;;;;;13.97;46.07;99135.50;6041267;23;20223;-87
2023/01/06 03:58:19;;;;;;;3.70;1.87;;;;;;;13.94;46.16;99139.19;6017629;23;20151;-86
2023/01/06 04:00:45;;;;;;;3.87;1.70;;;;;;;13.86;45.96;99143.31;6016049;23;20183;-86
2023/01/06 04:03:13;;;;;;;10.10;1.97;;;;;;;13.76;46.36;99158.00;6041787;23;20150;-86
2023/01/06 04:05:39;;;;;;;4.20;2.00;;;;;;;14.10;46.13;99145.13;6016170;23;20166;-87
2023/01/06 04:08:04;;;;;;;6.67;2.27;;;;;;;13.88;45.96;99144.88;6041301;23;20229;-87
2023/01/06 04:10:30;;;;;;;4.40;1.80;;;;;;;14.10;45.54;99158.31;6041046;23;20146;-88
2023/01/06 04:12:55;;;;;;;4.20;1.70;;;;;;;14.26;45.17;99155.50;6041057;23;20161;-88
2023/01/06 04:15:24;;;;;;;5.07;1.73;;;;;;;13.92;45.70;99154.28;6016019;23;20188;-87
2023/01/06 04:17:50;;;;;;;4.53;1.90;;;;;;;14.05;45.80;99160.41;6016066;23;20169;-88
2023/01/06 04:20:22;;;;;;;3.87;1.47;;;;;;;13.97;45.73;99167.97;6015870;23;20186;-86
2023/01/06 04:22:48;;;;;;;2.93;1.57;;;;;;;13.88;45.81;99163.34;6016180;23;20228;-86
2023/01/06 04:25:13;;;;;;;3.93;1.60;;;;;;;13.88;46.00;99173.88;6041288;23;20225;-87
2023/01/06 04:27:39;;;;;;;3.00;1.47;;;;;;;13.91;46.03;99178.09;6015824;23;20158;-87
2023/01/06 04:30:05;;;;;;;5.70;1.63;;;;;;;13.74;46.06;99179.19;6015913;23;20229;-86
2023/01/06 04:32:31;;;;;;;4.07;1.80;;;;;;;13.69;46.18;99178.63;6015980;23;20229;-87
2023/01/06 04:34:56;;;;;;;3.73;1.60;;;;;;;13.52;46.79;99176.25;6040857;23;20524;-86
2023/01/06 04:37:22;;;;;;;6.07;2.00;;;;;;;13.40;47.01;99187.53;6040675;23;20571;-87
2023/01/06 04:39:48;;;;;;;3.40;1.50;;;;;;;13.54;46.84;99179.63;6040998;23;20149;-88
2023/01/06 04:42:13;;;;;;;5.67;1.70;;;;;;;13.39;46.99;99191.97;6040613;23;20238;-87
2023/01/06 04:44:38;;;;;;;3.23;1.97;;;;;;;13.46;47.19;99187.16;6040092;23;20630;-87
2023/01/06 04:47:04;;;;;;;3.17;1.53;;;;;;;13.44;47.46;99204.84;6015807;23;20182;-86
2023/01/06 04:49:29;;;;;;;3.67;1.90;;;;;;;13.40;47.47;99205.97;6015667;23;20157;-88
2023/01/06 04:51:55;;;;;;;6.07;1.77;;;;;;;13.28;48.13;99214.66;6016080;23;20150;-86
2023/01/06 04:54:20;;;;;;;5.83;1.80;;;;;;;13.38;47.75;99221.88;6040735;23;20154;-86
2023/01/06 04:56:46;;;;;;;4.63;1.60;;;;;;;13.44;47.69;99212.75;6015668;23;20169;-86
2023/01/06 04:59:11;;;;;;;4.53;1.80;;;;;;;13.40;47.79;99224.41;6040737;23;20192;-87
2023/01/06 05:01:37;;;;;;;5.70;2.33;;;;;;;13.34;47.95;99233.53;6041055;23;20186;-87
2023/01/06 05:04:04;;;;;;;6.83;2.17;;;;;;;13.39;48.25;99235.91;6015694;23;20161;-87
2023/01/06 05:06:30;;;;;;;3.87;1.90;;;;;;;13.35;48.36;99247.53;6040519;23;20150;-87
2023/01/06 05:08:55;;;;;;;5.27;2.20;;;;;;;13.48;47.87;99243.22;6015663;23;20158;-87
2023/01/06 05:11:23;;;;;;;6.40;1.97;;;;;;;13.25;48.72;99254.31;6040729;23;20160;-87
2023/01/06 05:13:50;;;;;;;7.63;1.93;;;;;;;13.33;48.67;99257.34;6016095;23;20241;-88
2023/01/06 05:16:30;;;;;;;4.17;1.63;;;;;;;13.19;48.58;99262.59;6015721;23;20150;-87
2023/01/06 05:18:56;;;;;;;6.33;2.23;;;;;;;13.12;49.53;99266.53;6038123;23;20179;-86
2023/01/06 05:21:26;;;;;;;4.87;1.97;;;;;;;13.22;48.95;99275.56;6039939;23;20649;-86
2023/01/06 05:23:52;;;;;;;3.90;2.00;;;;;;;13.02;49.29;99276.75;6039989;23;20141;-87
2023/01/06 05:26:22;;;;;;;2.53;1.47;;;;;;;13.11;49.27;99280.63;6038691;23;20232;-88
2023/01/06 05:28:48;;;;;;;4.43;2.00;;;;;;;13.16;49.38;99282.03;6039053;23;20201;-87
2023/01/06 05:31:14;;;;;;;4.00;1.87;;;;;;;12.98;49.81;99295.44;6039602;23;20584;-89
2023/01/06 05:33:39;;;;;;;5.93;2.07;;;;;;;12.96;49.85;99285.00;6039654;23;20217;-87
2023/01/06 05:36:11;;;;;;;4.33;1.67;;;;;;;12.79;50.53;99291.25;6014889;23;20462;-88
2023/01/06 05:38:36;;;;;;;5.43;2.10;;;;;;;12.88;50.31;99285.47;6040287;23;20146;-88
2023/01/06 05:41:02;;;;;;;3.53;1.70;;;;;;;12.92;50.00;99292.22;6040377;23;20193;-87
2023/01/06 05:43:28;;;;;;;3.43;1.73;;;;;;;12.59;50.96;99277.59;6015333;23;20185;-87
2023/01/06 05:45:53;;;;;;;8.57;2.27;;;;;;;12.78;50.51;99278.22;6040410;23;20157;-87
2023/01/06 05:48:20;;;;;;;4.20;1.97;;;;;;;12.77;50.33;99281.75;6040428;23;20150;-86
2023/01/06 05:50:45;;;;;;;7.93;1.80;;;;;;;12.73;50.32;99275.88;6040342;23;20154;-87
2023/01/06 05:53:11;;;;;;;2.80;1.23;;;;;;;12.58;51.18;99282.00;6040351;23;20168;-86
2023/01/06 05:55:37;;;;;;;4.10;1.73;;;;;;;12.54;51.36;99293.63;6040010;23;20229;-86
2023/01/06 05:58:02;;;;;;;2.43;1.20;;;;;;;12.59;51.18;99291.59;6040052;23;20153;-85
2023/01/06 06:00:28;;;;;;;4.47;1.60;;;;;;;12.46;51.21;99303.75;6039959;23;20189;-87
2023/01/06 06:02:54;;;;;;;6.20;1.60;;;;;;;12.46;51.49;99309.00;6015190;23;20578;-86
2023/01/06 06:05:20;;;;;;;2.60;1.37;;;;;;;12.29;51.87;99311.72;6014992;23;20158;-85
2023/01/06 06:07:54;;;;;;;4.30;1.53;;;;;;;12.38;51.76;99321.75;6040224;23;20223;-85
2023/01/06 06:10:20;;;;;;;3.70;1.63;;;;;;;12.42;51.35;99331.13;6040454;23;20538;-85
2023/01/06 06:12:46;;;;;;;4.40;1.50;;;;;;;12.58;50.89;99328.50;6039545;23;20157;-85
2023/01/06 06:15:11;;;;;;;3.13;1.60;;;;;;;12.52;51.16;99331.47;6014932;23;20177;-84
2023/01/06 06:17:37;;;;;;;5.53;2.13;;;;;;;12.50;50.86;99315.78;6040200;23;20220;-84
2023/01/06 06:20:03;;;;;;;4.93;1.77;;;;;;;12.47;50.86;99318.59;6040088;23;20198;-83
2023/01/06 06:22:28;;;;;;;3.97;0.90;;;;;;;12.44;51.09;99328.44;6040222;23;20522;-85
2023/01/06 06:24:53;;;;;;;4.70;1.83;;;;;;;12.60;50.81;99332.75;6039798;23;20582;-84
2023/01/06 06:27:19;;;;;;;2.90;1.53;;;;;;;12.53;50.45;99315.59;6040130;23;20160;-85
2023/01/06 06:29:44;;;;;;;2.73;1.37;;;;;;;12.57;50.60;99330.28;6039647;23;20458;-84
2023/01/06 06:32:10;;;;;;;2.83;1.33;;;;;;;12.77;50.75;99324.69;6040068;23;20146;-83
2023/01/06 06:34:35;;;;;;;5.63;1.70;;;;;;;12.77;50.45;99337.84;6039229;23;20528;-84
2023/01/06 06:37:00;;;;;;;2.23;1.13;;;;;;;12.73;49.96;99328.47;6014823;23;20161;-83
2023/01/06 06:39:26;;;;;;;3.90;1.30;;;;;;;12.77;50.30;99329.97;6039678;23;20539;-84
2023/01/06 06:41:52;;;;;;;2.40;1.13;;;;;;;13.12;49.31;99329.69;6039696;23;20189;-86
2023/01/06 06:44:17;;;;;;;4.07;1.67;;;;;;;13.27;48.96;99329.63;6039636;23;20541;-84
2023/01/06 06:46:42;;;;;;;5.50;1.73;;;;;;;13.24;48.43;99328.97;6039638;23;20173;-84
2023/01/06 06:49:08;;;;;;;5.97;1.30;;;;;;;13.77;47.77;99333.56;6039961;23;20184;-83
2023/01/06 06:51:33;;;;;;;1.70;0.90;;;;;;;13.75;47.02;99343.38;6039914;23;20158;-85
2023/01/06 06:53:58;;;;;;;6.73;1.70;;;;;;;13.80;47.05;99342.16;6038644;23;20476;-84
2023/01/06 06:56:24;;;;;;;2.57;1.33;;;;;;;13.83;46.55;99343.75;6039552;23;20551;-83
2023/01/06 06:58:49;;;;;;;4.27;1.57;;;;;;;14.00;46.67;99352.28;6039953;23;20165;-84
2023/01/06 07:01:17;;;;;;;3.07;1.67;;;;;;;13.92;46.28;99365.09;6039504;23;20182;-85
2023/01/06 07:03:43;;;;;;;4.07;1.10;;;;;;;13.80;46.33;99352.69;6039512;23;20220;-85
2023/01/06 07:06:12;;;;;;;2.93;0.90;;;;;;;13.92;45.83;99353.69;6015020;23;20159;-84
2023/01/06 07:08:41;;;;;;;2.27;1.07;;;;;;;14.12;45.23;99348.03;6014914;23;20185;-84
2023/01/06 07:11:06;;;;;;;3.00;1.20;;;;;;;14.18;45.24;99356.38;6039876;23;20476;-84
2023/01/06 07:13:31;;;;;;;4.40;1.50;;;;;;;14.33;44.42;99364.28;6039465;23;20531;-84
2023/01/06 07:15:57;;;;;;;2.60;0.90;;;;;;;14.29;43.87;99353.06;6039334;23;20173;-86
2023/01/06 07:18:22;;;;;;;2.93;1.03;;;;;;;14.46;43.59;99347.59;6040726;23;20153;-84
2023/01/06 07:20:52;;;;;;;3.97;1.23;;;;;;;14.48;43.78;99364.16;6014422;23;20625;-83
2023/01/06 07:23:18;;;;;;;4.30;1.00;;;;;;;14.35;43.75;99370.31;6014294;23;20594;-84
2023/01/06 07:25:43;;;;;;;2.17;0.63;;;;;;;14.26;43.44;99368.22;6039362;23;20152;-86
2023/01/06 07:28:09;;;;;;;2.90;0.90;;;;;;;14.41;43.50;99365.47;6015077;23;20157;-84
2023/01/06 07:30:35;;;;;;;2.47;0.90;;;;;;;14.21;43.51;99370.31;6039405;23;20158;-83
2023/01/06 07:33:01;;;;;;;6.83;1.30;;;;;;;13.93;43.84;99361.50;6039398;23;20214;-84
2023/01/06 07:35:27;;;;;;;4.70;0.80;;;;;;;14.04;43.62;99359.06;6014738;23;20167;-83
2023/01/06 07:37:52;;;;;;;0.43;0.30;;;;;;;14.03;43.78;99373.16;6039518;23;20155;-85
2023/01/06 07:40:18;;;;;;;6.93;1.13;;;;;;;13.99;43.35;99370.84;6038364;23;20526;-87
2023/01/06 07:42:44;;;;;;;1.93;0.63;;;;;;;14.10;43.49;99374.47;6039350;23;20209;-82
2023/01/06 07:45:09;;;;;;;1.57;1.27;;;;;;;14.03;42.89;99381.06;6039713;23;20151;-83
2023/01/06 07:47:35;;;;;;;1.30;0.70;;;;;;;14.18;42.89;99371.34;6039599;23;20156;-84
2023/01/06 07:50:01;;;;;;;2.07;1.00;;;;;;;14.13;43.20;99373.41;6039209;23;20166;-84
2023/01/06 07:52:26;;;;;;;1.33;0.63;;;;;;;14.35;42.23;99391.41;6039572;23;20232;-86
2023/01/06 07:54:52;;;;;;;1.43;0.80;;;;;;;14.30;42.37;99385.56;6039925;23;20160;-85
2023/01/06 07:57:17;;;;;;;1.07;0.63;;;;;;;14.35;42.01;99401.94;6039749;23;20182;-86
2023/01/06 07:59:43;;;;;;;2.00;0.80;;;;;;;14.32;42.41;99399.50;6014923;23;20161;-86
2023/01/06 08:02:11;;;;;;;4.43;1.33;;;;;;;14.39;42.51;99384.97;6039079;23;20322;-88
2023/01/06 08:04:37;;;;;;;5.10;0.60;;;;;;;14.31;42.39;99397.81;6039333;23;20155;-86
2023/01/06 08:07:02;;;;;;;2.53;0.90;;;;;;;14.66;42.34;99406.94;6039270;23;20251;-87
2023/01/06 08:09:28;;;;;;;2.10;0.93;;;;;;;14.58;42.10;99418.00;6039870;23;20154;-86
2023/01/06 08:11:53;;;;;;;2.00;0.67;;;;;;;14.91;41.42;99414.94;6039355;23;20180;-87
2023/01/06 08:14:19;;;;;;;2.10;0.70;;;;;;;14.69;41.69;99435.78;6039173;23;20170;-86
2023/01/06 08:16:44;;;;;;;6.40;1.60;;;;;;;14.73;41.81;99421.44;6014491;23;20164;-84
2023/01/06 08:19:10;;;;;;;1.50;0.47;;;;;;;14.69;41.41;99430.50;6039902;23;20152;-87
2023/01/06 08:21:35;;;;;;;2.53;1.07;;;;;;;14.55;41.97;99435.81;6039174;23;20203;-87
2023/01/06 08:24:01;;;;;;;3.43;0.80;;;;;;;14.75;41.43;99435.41;6039185;23;20157;-86
2023/01/06 08:26:26;;;;;;;4.93;1.30;;;;;;;14.92;41.79;99452.75;6039178;23;20485;-89
2023/01/06 08:28:52;;;;;;;3.67;1.30;;;;;;;15.13;41.18;99446.06;6039175;23;20156;-87
2023/01/06 08:31:22;;;;;;;3.07;0.80;;;;;;;15.30;40.66;99438.72;6014366;23;20156;-86
2023/01/06 08:33:49;;;;;;;1.60;0.63;;;;;;;15.35;40.24;99446.34;6039170;23;20223;-86
2023/01/06 08:36:18;;;;;;;2.47;1.00;;;;;;;15.20;39.86;99445.56;6015540;23;20239;-89
2023/01/06 08:38:44;;;;;;;1.70;0.80;;;;;;;15.25;40.14;99443.44;6040129;23;20167;-86
2023/01/06 08:41:10;;;;;;;3.27;0.70;;;;;;;15.41;39.44;99450.38;6040632;23;20542;-86
2023/01/06 08:43:37;;;;;;;2.20;0.83;;;;;;;15.58;39.71;99447.47;6041084;23;20208;-86
2023/01/06 08:46:06;;;;;;;2.43;0.80;;;;;;;15.53;39.43;99452.22;6041061;23;20171;-85
2023/01/06 08:48:32;;;;;;;3.40;1.03;;;;;;;15.58;39.30;99458.03;6041381;23;20226;-86
2023/01/06 08:51:03;;;;;;;1.73;0.90;;;;;;;15.59;39.22;99438.59;6041003;23;20555;-84
2023/01/06 08:53:28;;;;;;;1.57;0.77;;;;;;;15.46;38.69;99453.59;6016445;23;20245;-86
2023/01/06 08:55:53;;;;;;;1.70;0.60;;;;;;;15.40;39.15;99449.53;6015780;23;20161;-86
2023/01/06 08:58:19;;;;;;;4.93;1.00;;;;;;;15.45;39.00;99436.00;6041410;23;20161;-85
2023/01/06 09:00:44;;;;;;;1.53;0.67;;;;;;;15.50;38.51;99444.50;6040362;23;20212;-86
2023/01/06 09:03:10;;;;;;;7.17;0.90;;;;;;;15.85;38.27;99440.28;6040673;23;20301;-86
2023/01/06 09:05:35;;;;;;;1.83;0.97;;;;;;;15.80;38.19;99435.28;6016125;23;20168;-86
2023/01/06 09:08:01;;;;;;;2.97;0.80;;;;;;;15.86;38.17;99429.59;6041613;23;20153;-87
2023/01/06 09:10:26;;;;;;;2.03;0.80;;;;;;;16.18;37.90;99427.34;6040628;23;20616;-86
2023/01/06 09:12:52;;;;;;;0.80;0.37;;;;;;;15.78;37.33;99423.16;6015611;23;20574;-88
2023/01/06 09:15:17;;;;;;;3.43;0.73;;;;;;;15.70;37.63;99428.09;6015646;23;20180;-86
2023/01/06 09:17:43;;;;;;;2.87;0.90;;;;;;;15.81;37.67;99441.44;6040485;23;20582;-86
2023/01/06 09:20:09;;;;;;;2.43;0.67;;;;;;;15.95;37.70;99436.91;6040218;23;20153;-87
2023/01/06 09:22:34;;;;;;;2.87;1.00;;;;;;;15.68;38.39;99432.66;6015483;23;20606;-85
2023/01/06 09:24:59;;;;;;;1.90;0.70;;;;;;;15.97;37.69;99436.78;6016392;23;20158;-85
2023/01/06 09:27:25;;;;;;;1.83;0.67;;;;;;;16.20;37.20;99436.00;6040711;23;20154;-84
2023/01/06 09:29:50;;;;;;;1.47;0.53;;;;;;;16.06;37.03;99444.09;6015727;23;20634;-86
2023/01/06 09:32:16;;;;;;;2.73;0.60;;;;;;;15.97;37.36;99442.06;6040662;23;20158;-86
2023/01/06 09:34:41;;;;;;;1.83;0.67;;;;;;;16.33;37.22;99439.47;6040461;23;20575;-88
2023/01/06 09:37:07;;;;;;;2.43;0.90;;;;;;;16.19;36.80;99422.91;6039214;23;20163;-87
2023/01/06 09:39:33;;;;;;;1.93;0.70;;;;;;;16.47;36.71;99428.75;6040869;23;20162;-86
2023/01/06 09:42:19;;;;;;;2.13;0.83;;;;;;;16.23;37.00;99430.50;6015273;23;20622;-85
2023/01/06 09:44:51;;;;;;;2.47;0.50;;;;;;;16.23;36.48;99434.94;6040865;23;20150;-84
2023/01/06 09:47:22;;;;;;;4.37;0.30;;;;;;;16.50;36.45;99427.69;6039976;23;20198;-85
2023/01/06 09:49:56;;;;;;;2.37;0.50;;;;;;;16.61;35.55;99424.31;6016338;23;20161;-86
2023/01/06 09:52:50;;;;;;;1.10;0.40;;;;;;;16.51;35.47;99437.31;6015824;23;20163;-88
2023/01/06 09:55:29;;;;;;;2.00;0.70;;;;;;;16.52;35.74;99418.72;6015481;23;20236;-86
2023/01/06 09:58:00;;;;;;;1.57;0.50;;;;;;;16.72;35.68;99413.78;6040471;23;20177;-87
2023/01/06 10:00:38;;;;;;;1.43;0.30;;;;;;;16.76;34.87;99428.47;6015043;23;20177;-87
2023/01/06 10:03:05;;;;;;;1.23;0.63;;;;;;;16.62;35.31;99412.75;6040708;23;20180;-88
2023/01/06 10:06:01;;;;;;;1.47;0.57;;;;;;;16.78;35.14;99422.13;6039984;23;20153;-86
2023/01/06 10:08:50;;;;;;;0.60;0.40;;;;;;;16.87;34.99;99415.31;6040328;23;20165;-87
2023/01/06 10:11:36;;;;;;;5.07;0.50;;;;;;;17.05;35.03;99419.25;6040248;23;20202;-84
2023/01/06 10:15:00;;;;;;;2.23;0.60;;;;;;;17.10;35.11;99427.69;6014896;23;20169;-85
2023/01/06 10:17:37;;;;;;;3.13;0.50;;;;;;;17.29;34.20;99414.75;5926402;24;20172;-86
2023/01/06 10:20:31;;;;;;;4.87;1.20;;;;;;;17.07;34.79;99419.97;5926781;24;20236;-88
2023/01/06 10:23:17;;;;;;;1.70;0.60;;;;;;;16.93;34.69;99407.75;5985942;23;20573;-86
2023/01/06 10:25:48;;;;;;;1.23;0.40;;;;;;;17.22;35.21;99412.69;6040276;23;20435;-86
2023/01/06 10:28:29;;;;;;;1.10;0.50;;;;;;;17.45;34.09;99402.00;6014807;23;20150;-86
2023/01/06 10:30:59;;;;;;;1.13;0.40;;;;;;;17.28;34.51;99394.50;6040574;23;20278;-87
2023/01/06 10:33:29;;;;;;;1.27;0.50;;;;;;;17.42;34.92;99391.66;6014995;23;20201;-85
2023/01/06 10:35:56;;;;;;;1.60;0.57;;;;;;;17.41;34.20;99397.91;6039761;23;20190;-84
2023/01/06 10:38:36;;;;;;;1.20;0.57;;;;;;;17.35;34.20;99395.72;6039728;23;20214;-86
2023/01/06 10:41:14;;;;;;;1.23;0.50;;;;;;;17.33;34.18;99392.34;6015553;23;20178;-86
2023/01/06 10:43:40;;;;;;;1.73;0.80;;;;;;;17.58;33.86;99386.06;6014791;23;20145;-85
2023/01/06 10:46:05;;;;;;;1.07;0.57;;;;;;;17.57;33.51;99390.50;6039638;23;20197;-85
2023/01/06 10:48:33;;;;;;;1.17;0.30;;;;;;;17.35;33.88;99374.53;6015119;23;20177;-87
2023/01/06 10:51:26;;;;;;;6.87;1.07;;;;;;;17.55;33.17;99387.16;5992673;23;20181;-85
2023/01/06 10:53:55;;;;;;;2.90;0.57;;;;;;;17.51;33.00;99390.09;6014597;23;20190;-88
2023/01/06 10:56:20;;;;;;;1.40;0.53;;;;;;;17.82;32.66;99380.66;6014747;23;20184;-87
2023/01/06 10:58:55;;;;;;;1.33;0.60;;;;;;;17.70;32.05;99380.66;6039358;23;20629;-87
2023/01/06 11:01:25;;;;;;;2.47;0.63;;;;;;;17.39;32.72;99380.44;6040001;23;20173;-86
2023/01/06 11:04:10;;;;;;;2.07;0.60;;;;;;;17.73;33.20;99368.97;6039520;23;20157;-84
2023/01/06 11:06:45;;;;;;;1.60;0.50;;;;;;;17.75;32.70;99373.19;6040352;23;20149;-85
2023/01/06 11:09:25;;;;;;;0.77;0.50;;;;;;;17.93;32.37;99370.88;6040357;23;20179;-85
2023/01/06 11:11:53;;;;;;;1.03;0.40;;;;;;;18.35;32.55;99371.91;6038216;23;20153;-84
2023/01/06 11:14:24;;;;;;;0.80;0.40;;;;;;;18.29;32.29;99373.25;6039344;23;20232;-85
2023/01/06 11:16:56;;;;;;;1.97;0.50;;;;;;;18.06;32.23;99370.75;6039513;23;20654;-87
2023/01/06 11:19:32;;;;;;;1.00;0.57;;;;;;;18.48;32.12;99355.88;6040326;23;20223;-85
2023/01/06 11:21:57;;;;;;;1.50;0.50;;;;;;;18.65;30.91;99369.47;6039666;23;20641;-87
2023/01/06 11:24:25;;;;;;;1.70;0.50;;;;;;;18.47;31.87;99362.13;6015320;23;20161;-87
2023/01/06 11:26:52;;;;;;;1.50;0.70;;;;;;;18.34;31.22;99372.91;6014580;23;20224;-87
2023/01/06 11:29:28;;;;;;;1.33;0.50;;;;;;;18.26;31.58;99364.72;6039390;23;20157;-85
2023/01/06 11:31:55;;;;;;;5.77;0.50;;;;;;;18.52;31.76;99360.81;6039387;23;20140;-85
2023/01/06 11:34:27;;;;;;;0.90;0.40;;;;;;;18.60;31.44;99358.41;6038101;23;20608;-86
2023/01/06 11:36:54;;;;;;;1.10;0.40;;;;;;;18.42;31.10;99351.91;6039397;23;20148;-86
2023/01/06 11:39:26;;;;;;;1.00;0.40;;;;;;;18.44;31.10;99344.66;6039236;23;20160;-85
2023/01/06 11:41:54;;;;;;;1.20;0.50;;;;;;;18.62;30.82;99347.63;6015025;23;20261;-85
2023/01/06 11:44:33;;;;;;;1.17;0.47;;;;;;;18.32;30.79;99348.28;6037958;23;20225;-85
2023/01/06 11:47:03;;;;;;;0.83;0.50;;;;;;;18.51;30.38;99332.59;6014370;23;20233;-84
2023/01/06 11:49:55;;;;;;;1.60;0.50;;;;;;;18.44;30.35;99336.69;6014324;23;20153;-86